sensor_id;sensor_type;location;lat;lon;timestamp;P1;durP1;ratioP1;P2;durP2;ratioP2
9413;SDS011;4746;35.664;139.738;2022-10-16T00:01:41;9.18;;;4.45;;
9413;SDS011;4746;35.664;139.738;2022-10-16T00:04:08;5.18;;;4.20;;
9413;SDS011;4746;35.664;139.738;2022-10-16T00:06:36;7.35;;;4.45;;
9413;SDS011;4746;35.664;139.738;2022-10-16T00:09:04;5.07;;;4.30;;
9413;SDS011;4746;35.664;139.738;2022-10-16T00:11:33;7.85;;;5.07;;
9413;SDS011;4746;35.664;139.738;2022-10-16T00:14:10;9.32;;;4.78;;
9413;SDS011;4746;35.664;139.738;2022-10-16T00:16:41;5.78;;;4.53;;
9413;SDS011;4746;35.664;139.738;2022-10-16T00:19:09;7.72;;;4.40;;
9413;SDS011;4746;35.664;139.738;2022-10-16T00:21:38;10.82;;;5.10;;
9413;SDS011;4746;35.664;139.738;2022-10-16T00:24:06;8.25;;;4.85;;
9413;SDS011;4746;35.664;139.738;2022-10-16T00:26:36;8.60;;;4.70;;
9413;SDS011;4746;35.664;139.738;2022-10-16T00:29:05;7.82;;;4.60;;
9413;SDS011;4746;35.664;139.738;2022-10-16T00:31:34;5.55;;;4.72;;
9413;SDS011;4746;35.664;139.738;2022-10-16T00:34:01;7.05;;;4.43;;
9413;SDS011;4746;35.664;139.738;2022-10-16T00:36:29;6.82;;;4.97;;
9413;SDS011;4746;35.664;139.738;2022-10-16T00:38:57;6.05;;;4.55;;
9413;SDS011;4746;35.664;139.738;2022-10-16T00:41:26;6.35;;;4.45;;
9413;SDS011;4746;35.664;139.738;2022-10-16T00:43:55;7.20;;;4.47;;
9413;SDS011;4746;35.664;139.738;2022-10-16T00:46:27;9.30;;;4.75;;
9413;SDS011;4746;35.664;139.738;2022-10-16T00:49:11;8.35;;;4.45;;
9413;SDS011;4746;35.664;139.738;2022-10-16T00:51:45;7.03;;;4.72;;
9413;SDS011;4746;35.664;139.738;2022-10-16T00:54:20;8.95;;;4.00;;
9413;SDS011;4746;35.664;139.738;2022-10-16T00:56:57;9.40;;;4.95;;
9413;SDS011;4746;35.664;139.738;2022-10-16T00:59:30;4.68;;;4.03;;
9413;SDS011;4746;35.664;139.738;2022-10-16T01:02:03;9.68;;;4.50;;
9413;SDS011;4746;35.664;139.738;2022-10-16T01:04:36;6.30;;;4.25;;
9413;SDS011;4746;35.664;139.738;2022-10-16T01:16:27;8.10;;;4.57;;
9413;SDS011;4746;35.664;139.738;2022-10-16T01:18:46;9.88;;;4.60;;
9413;SDS011;4746;35.664;139.738;2022-10-16T01:29:52;8.23;;;4.75;;
9413;SDS011;4746;35.664;139.738;2022-10-16T01:32:36;10.00;;;4.80;;
9413;SDS011;4746;35.664;139.738;2022-10-16T01:35:14;5.78;;;4.72;;
9413;SDS011;4746;35.664;139.738;2022-10-16T01:40:29;8.18;;;4.97;;
9413;SDS011;4746;35.664;139.738;2022-10-16T01:43:34;6.35;;;3.95;;
9413;SDS011;4746;35.664;139.738;2022-10-16T01:46:02;6.72;;;4.05;;
9413;SDS011;4746;35.664;139.738;2022-10-16T01:48:31;7.65;;;4.60;;
9413;SDS011;4746;35.664;139.738;2022-10-16T01:51:08;6.53;;;4.50;;
9413;SDS011;4746;35.664;139.738;2022-10-16T01:53:40;8.70;;;5.15;;
9413;SDS011;4746;35.664;139.738;2022-10-16T01:56:17;6.65;;;4.60;;
9413;SDS011;4746;35.664;139.738;2022-10-16T01:58:52;9.80;;;4.95;;
9413;SDS011;4746;35.664;139.738;2022-10-16T02:01:32;6.15;;;4.38;;
9413;SDS011;4746;35.664;139.738;2022-10-16T02:04:10;7.38;;;4.70;;
9413;SDS011;4746;35.664;139.738;2022-10-16T02:06:48;6.43;;;4.53;;
9413;SDS011;4746;35.664;139.738;2022-10-16T02:09:16;7.15;;;5.20;;
9413;SDS011;4746;35.664;139.738;2022-10-16T02:11:43;6.35;;;4.47;;
9413;SDS011;4746;35.664;139.738;2022-10-16T02:14:11;4.93;;;4.45;;
9413;SDS011;4746;35.664;139.738;2022-10-16T02:16:41;8.85;;;4.97;;
9413;SDS011;4746;35.664;139.738;2022-10-16T02:19:12;7.32;;;4.60;;
9413;SDS011;4746;35.664;139.738;2022-10-16T02:21:47;7.80;;;4.60;;
9413;SDS011;4746;35.664;139.738;2022-10-16T02:24:41;6.60;;;4.90;;
9413;SDS011;4746;35.664;139.738;2022-10-16T02:30:14;7.68;;;4.93;;
9413;SDS011;4746;35.664;139.738;2022-10-16T02:32:52;8.43;;;4.82;;
9413;SDS011;4746;35.664;139.738;2022-10-16T02:35:24;6.25;;;5.22;;
9413;SDS011;4746;35.664;139.738;2022-10-16T02:37:53;7.18;;;4.72;;
9413;SDS011;4746;35.664;139.738;2022-10-16T02:40:22;7.20;;;4.55;;
9413;SDS011;4746;35.664;139.738;2022-10-16T02:42:52;7.60;;;5.18;;
9413;SDS011;4746;35.664;139.738;2022-10-16T02:45:22;7.63;;;5.30;;
9413;SDS011;4746;35.664;139.738;2022-10-16T02:47:50;6.00;;;5.10;;
9413;SDS011;4746;35.664;139.738;2022-10-16T02:50:18;8.18;;;5.60;;
9413;SDS011;4746;35.664;139.738;2022-10-16T02:52:46;6.07;;;4.75;;
9413;SDS011;4746;35.664;139.738;2022-10-16T02:55:13;6.32;;;5.18;;
9413;SDS011;4746;35.664;139.738;2022-10-16T02:57:41;5.38;;;4.60;;
9413;SDS011;4746;35.664;139.738;2022-10-16T03:00:09;6.78;;;4.15;;
9413;SDS011;4746;35.664;139.738;2022-10-16T03:02:40;7.85;;;4.70;;
9413;SDS011;4746;35.664;139.738;2022-10-16T03:05:08;9.63;;;5.10;;
9413;SDS011;4746;35.664;139.738;2022-10-16T03:07:36;9.05;;;5.07;;
9413;SDS011;4746;35.664;139.738;2022-10-16T03:10:04;7.10;;;4.90;;
9413;SDS011;4746;35.664;139.738;2022-10-16T03:12:32;8.13;;;5.10;;
9413;SDS011;4746;35.664;139.738;2022-10-16T03:15:00;5.57;;;4.45;;
9413;SDS011;4746;35.664;139.738;2022-10-16T03:17:28;7.25;;;5.50;;
9413;SDS011;4746;35.664;139.738;2022-10-16T03:19:57;9.07;;;5.25;;
9413;SDS011;4746;35.664;139.738;2022-10-16T03:22:24;7.07;;;5.00;;
9413;SDS011;4746;35.664;139.738;2022-10-16T03:24:52;6.20;;;5.25;;
9413;SDS011;4746;35.664;139.738;2022-10-16T03:27:20;6.40;;;5.32;;
9413;SDS011;4746;35.664;139.738;2022-10-16T03:29:47;5.60;;;4.97;;
9413;SDS011;4746;35.664;139.738;2022-10-16T03:32:15;8.10;;;5.45;;
9413;SDS011;4746;35.664;139.738;2022-10-16T03:34:45;6.82;;;5.40;;
9413;SDS011;4746;35.664;139.738;2022-10-16T03:37:13;8.18;;;5.43;;
9413;SDS011;4746;35.664;139.738;2022-10-16T03:39:40;6.80;;;4.97;;
9413;SDS011;4746;35.664;139.738;2022-10-16T03:42:07;7.28;;;4.78;;
9413;SDS011;4746;35.664;139.738;2022-10-16T03:44:35;8.55;;;5.35;;
9413;SDS011;4746;35.664;139.738;2022-10-16T03:47:02;6.28;;;4.28;;
9413;SDS011;4746;35.664;139.738;2022-10-16T03:49:30;6.50;;;4.53;;
9413;SDS011;4746;35.664;139.738;2022-10-16T03:51:57;6.32;;;4.55;;
9413;SDS011;4746;35.664;139.738;2022-10-16T03:54:24;7.55;;;4.70;;
9413;SDS011;4746;35.664;139.738;2022-10-16T03:56:52;7.13;;;4.75;;
9413;SDS011;4746;35.664;139.738;2022-10-16T03:59:19;7.70;;;5.00;;
9413;SDS011;4746;35.664;139.738;2022-10-16T04:01:47;5.63;;;4.78;;
9413;SDS011;4746;35.664;139.738;2022-10-16T04:04:14;6.88;;;4.50;;
9413;SDS011;4746;35.664;139.738;2022-10-16T04:06:42;5.03;;;4.45;;
9413;SDS011;4746;35.664;139.738;2022-10-16T04:09:09;4.93;;;4.40;;
9413;SDS011;4746;35.664;139.738;2022-10-16T04:11:37;6.72;;;5.13;;
9413;SDS011;4746;35.664;139.738;2022-10-16T04:14:04;6.25;;;4.82;;
9413;SDS011;4746;35.664;139.738;2022-10-16T04:16:32;5.90;;;5.30;;
9413;SDS011;4746;35.664;139.738;2022-10-16T04:18:59;7.50;;;4.82;;
9413;SDS011;4746;35.664;139.738;2022-10-16T04:21:26;5.25;;;4.72;;
9413;SDS011;4746;35.664;139.738;2022-10-16T04:23:54;4.82;;;4.22;;
9413;SDS011;4746;35.664;139.738;2022-10-16T04:26:21;6.88;;;4.72;;
9413;SDS011;4746;35.664;139.738;2022-10-16T04:28:49;5.32;;;4.57;;
9413;SDS011;4746;35.664;139.738;2022-10-16T04:31:16;6.10;;;4.97;;
9413;SDS011;4746;35.664;139.738;2022-10-16T04:33:44;5.40;;;4.53;;
9413;SDS011;4746;35.664;139.738;2022-10-16T04:36:11;7.57;;;4.88;;
9413;SDS011;4746;35.664;139.738;2022-10-16T04:38:39;13.45;;;5.00;;
9413;SDS011;4746;35.664;139.738;2022-10-16T04:41:07;6.13;;;5.03;;
9413;SDS011;4746;35.664;139.738;2022-10-16T04:43:35;6.05;;;4.90;;
9413;SDS011;4746;35.664;139.738;2022-10-16T04:46:02;8.02;;;5.45;;
9413;SDS011;4746;35.664;139.738;2022-10-16T04:48:30;6.47;;;4.70;;
9413;SDS011;4746;35.664;139.738;2022-10-16T04:50:58;7.88;;;5.25;;
9413;SDS011;4746;35.664;139.738;2022-10-16T04:53:27;7.25;;;5.43;;
9413;SDS011;4746;35.664;139.738;2022-10-16T04:55:54;6.32;;;5.43;;
9413;SDS011;4746;35.664;139.738;2022-10-16T04:58:23;6.80;;;5.38;;
9413;SDS011;4746;35.664;139.738;2022-10-16T05:00:51;5.78;;;4.93;;
9413;SDS011;4746;35.664;139.738;2022-10-16T05:03:19;6.82;;;4.78;;
9413;SDS011;4746;35.664;139.738;2022-10-16T05:05:46;6.10;;;5.00;;
9413;SDS011;4746;35.664;139.738;2022-10-16T05:08:14;5.68;;;4.60;;
9413;SDS011;4746;35.664;139.738;2022-10-16T05:10:43;6.80;;;4.65;;
9413;SDS011;4746;35.664;139.738;2022-10-16T05:13:11;5.75;;;4.60;;
9413;SDS011;4746;35.664;139.738;2022-10-16T05:15:39;6.20;;;5.25;;
9413;SDS011;4746;35.664;139.738;2022-10-16T05:18:12;5.53;;;4.50;;
9413;SDS011;4746;35.664;139.738;2022-10-16T05:20:40;7.07;;;4.80;;
9413;SDS011;4746;35.664;139.738;2022-10-16T05:23:08;5.40;;;4.90;;
9413;SDS011;4746;35.664;139.738;2022-10-16T05:25:37;7.88;;;4.70;;
9413;SDS011;4746;35.664;139.738;2022-10-16T05:28:04;5.93;;;4.65;;
9413;SDS011;4746;35.664;139.738;2022-10-16T05:30:32;5.18;;;4.28;;
9413;SDS011;4746;35.664;139.738;2022-10-16T05:33:02;6.38;;;4.70;;
9413;SDS011;4746;35.664;139.738;2022-10-16T05:35:30;4.43;;;4.03;;
9413;SDS011;4746;35.664;139.738;2022-10-16T05:37:57;5.03;;;3.97;;
9413;SDS011;4746;35.664;139.738;2022-10-16T05:40:26;6.43;;;4.15;;
9413;SDS011;4746;35.664;139.738;2022-10-16T05:42:54;6.20;;;4.10;;
9413;SDS011;4746;35.664;139.738;2022-10-16T05:45:22;4.70;;;4.20;;
9413;SDS011;4746;35.664;139.738;2022-10-16T05:47:50;6.95;;;4.32;;
9413;SDS011;4746;35.664;139.738;2022-10-16T05:50:17;5.38;;;3.95;;
9413;SDS011;4746;35.664;139.738;2022-10-16T05:52:44;6.22;;;3.78;;
9413;SDS011;4746;35.664;139.738;2022-10-16T05:55:12;7.50;;;3.70;;
9413;SDS011;4746;35.664;139.738;2022-10-16T05:57:40;5.03;;;3.80;;
9413;SDS011;4746;35.664;139.738;2022-10-16T06:00:08;6.43;;;4.07;;
9413;SDS011;4746;35.664;139.738;2022-10-16T06:02:36;3.97;;;3.42;;
9413;SDS011;4746;35.664;139.738;2022-10-16T06:05:04;4.13;;;3.67;;
9413;SDS011;4746;35.664;139.738;2022-10-16T06:07:34;5.63;;;3.95;;
9413;SDS011;4746;35.664;139.738;2022-10-16T06:10:02;4.75;;;3.72;;
9413;SDS011;4746;35.664;139.738;2022-10-16T06:12:30;5.05;;;4.10;;
9413;SDS011;4746;35.664;139.738;2022-10-16T06:14:58;5.18;;;3.80;;
9413;SDS011;4746;35.664;139.738;2022-10-16T06:17:25;5.68;;;4.20;;
9413;SDS011;4746;35.664;139.738;2022-10-16T06:19:53;8.40;;;4.00;;
9413;SDS011;4746;35.664;139.738;2022-10-16T06:22:20;5.68;;;3.58;;
9413;SDS011;4746;35.664;139.738;2022-10-16T06:24:48;4.60;;;4.20;;
9413;SDS011;4746;35.664;139.738;2022-10-16T06:27:15;4.45;;;4.05;;
9413;SDS011;4746;35.664;139.738;2022-10-16T06:29:43;8.10;;;4.10;;
9413;SDS011;4746;35.664;139.738;2022-10-16T06:32:11;4.80;;;4.07;;
9413;SDS011;4746;35.664;139.738;2022-10-16T06:34:38;4.72;;;3.47;;
9413;SDS011;4746;35.664;139.738;2022-10-16T06:37:06;6.50;;;3.92;;
9413;SDS011;4746;35.664;139.738;2022-10-16T06:39:33;4.55;;;3.97;;
9413;SDS011;4746;35.664;139.738;2022-10-16T06:42:01;8.10;;;4.38;;
9413;SDS011;4746;35.664;139.738;2022-10-16T06:44:28;6.88;;;4.15;;
9413;SDS011;4746;35.664;139.738;2022-10-16T06:46:56;5.25;;;4.18;;
9413;SDS011;4746;35.664;139.738;2022-10-16T06:49:23;5.45;;;4.07;;
9413;SDS011;4746;35.664;139.738;2022-10-16T06:51:51;4.60;;;4.10;;
9413;SDS011;4746;35.664;139.738;2022-10-16T06:54:18;8.05;;;4.15;;
9413;SDS011;4746;35.664;139.738;2022-10-16T06:56:46;7.20;;;4.32;;
9413;SDS011;4746;35.664;139.738;2022-10-16T06:59:15;6.00;;;4.22;;
9413;SDS011;4746;35.664;139.738;2022-10-16T07:01:43;6.15;;;4.13;;
9413;SDS011;4746;35.664;139.738;2022-10-16T07:04:12;9.43;;;3.72;;
9413;SDS011;4746;35.664;139.738;2022-10-16T07:06:40;6.10;;;4.70;;
9413;SDS011;4746;35.664;139.738;2022-10-16T07:09:08;6.22;;;4.45;;
9413;SDS011;4746;35.664;139.738;2022-10-16T07:11:37;6.65;;;4.60;;
9413;SDS011;4746;35.664;139.738;2022-10-16T07:14:12;7.50;;;4.03;;
9413;SDS011;4746;35.664;139.738;2022-10-16T07:16:44;6.13;;;4.35;;
9413;SDS011;4746;35.664;139.738;2022-10-16T07:19:11;4.75;;;4.18;;
9413;SDS011;4746;35.664;139.738;2022-10-16T07:21:42;7.40;;;4.75;;
9413;SDS011;4746;35.664;139.738;2022-10-16T07:24:13;4.95;;;4.55;;
9413;SDS011;4746;35.664;139.738;2022-10-16T07:26:43;5.82;;;4.32;;
9413;SDS011;4746;35.664;139.738;2022-10-16T07:29:13;11.35;;;5.38;;
9413;SDS011;4746;35.664;139.738;2022-10-16T07:31:46;6.47;;;5.20;;
9413;SDS011;4746;35.664;139.738;2022-10-16T07:34:15;5.13;;;4.60;;
9413;SDS011;4746;35.664;139.738;2022-10-16T07:36:50;9.55;;;4.45;;
9413;SDS011;4746;35.664;139.738;2022-10-16T07:39:18;7.45;;;4.68;;
9413;SDS011;4746;35.664;139.738;2022-10-16T07:41:45;7.60;;;5.13;;
9413;SDS011;4746;35.664;139.738;2022-10-16T07:44:12;5.28;;;4.78;;
9413;SDS011;4746;35.664;139.738;2022-10-16T07:46:42;7.35;;;4.63;;
9413;SDS011;4746;35.664;139.738;2022-10-16T07:49:09;7.50;;;4.25;;
9413;SDS011;4746;35.664;139.738;2022-10-16T07:51:37;7.57;;;4.20;;
9413;SDS011;4746;35.664;139.738;2022-10-16T07:54:05;6.88;;;4.20;;
9413;SDS011;4746;35.664;139.738;2022-10-16T07:56:33;5.35;;;3.55;;
9413;SDS011;4746;35.664;139.738;2022-10-16T07:59:01;7.22;;;4.22;;
9413;SDS011;4746;35.664;139.738;2022-10-16T08:01:28;5.93;;;3.50;;
9413;SDS011;4746;35.664;139.738;2022-10-16T08:03:56;10.25;;;4.43;;
9413;SDS011;4746;35.664;139.738;2022-10-16T08:06:23;6.05;;;3.75;;
9413;SDS011;4746;35.664;139.738;2022-10-16T08:08:51;5.65;;;4.50;;
9413;SDS011;4746;35.664;139.738;2022-10-16T08:11:19;6.30;;;4.15;;
9413;SDS011;4746;35.664;139.738;2022-10-16T08:13:47;5.78;;;3.72;;
9413;SDS011;4746;35.664;139.738;2022-10-16T08:16:14;7.60;;;4.13;;
9413;SDS011;4746;35.664;139.738;2022-10-16T08:18:45;5.45;;;4.10;;
9413;SDS011;4746;35.664;139.738;2022-10-16T08:21:16;8.52;;;3.70;;
9413;SDS011;4746;35.664;139.738;2022-10-16T08:23:49;6.95;;;4.20;;
9413;SDS011;4746;35.664;139.738;2022-10-16T08:26:18;4.55;;;3.97;;
9413;SDS011;4746;35.664;139.738;2022-10-16T08:28:49;4.97;;;3.67;;
9413;SDS011;4746;35.664;139.738;2022-10-16T08:31:17;6.82;;;4.18;;
9413;SDS011;4746;35.664;139.738;2022-10-16T08:33:44;9.77;;;4.45;;
9413;SDS011;4746;35.664;139.738;2022-10-16T08:36:13;6.68;;;4.18;;
9413;SDS011;4746;35.664;139.738;2022-10-16T08:38:42;7.72;;;4.22;;
9413;SDS011;4746;35.664;139.738;2022-10-16T08:41:18;5.88;;;4.32;;
9413;SDS011;4746;35.664;139.738;2022-10-16T08:44:24;8.40;;;4.80;;
9413;SDS011;4746;35.664;139.738;2022-10-16T08:50:31;4.18;;;3.78;;
9413;SDS011;4746;35.664;139.738;2022-10-16T08:53:04;6.72;;;4.85;;
9413;SDS011;4746;35.664;139.738;2022-10-16T08:55:46;7.10;;;4.80;;
9413;SDS011;4746;35.664;139.738;2022-10-16T08:58:21;6.38;;;3.95;;
9413;SDS011;4746;35.664;139.738;2022-10-16T09:00:54;6.60;;;4.10;;
9413;SDS011;4746;35.664;139.738;2022-10-16T09:06:35;9.10;;;3.55;;
9413;SDS011;4746;35.664;139.738;2022-10-16T09:09:27;6.47;;;3.88;;
9413;SDS011;4746;35.664;139.738;2022-10-16T09:12:27;7.43;;;3.67;;
9413;SDS011;4746;35.664;139.738;2022-10-16T09:15:29;8.68;;;3.83;;
9413;SDS011;4746;35.664;139.738;2022-10-16T09:21:14;7.82;;;3.67;;
9413;SDS011;4746;35.664;139.738;2022-10-16T09:23:59;6.97;;;3.78;;
9413;SDS011;4746;35.664;139.738;2022-10-16T09:26:44;7.72;;;3.83;;
9413;SDS011;4746;35.664;139.738;2022-10-16T09:29:13;9.65;;;4.43;;
9413;SDS011;4746;35.664;139.738;2022-10-16T09:31:45;6.03;;;3.80;;
9413;SDS011;4746;35.664;139.738;2022-10-16T09:34:17;6.97;;;4.30;;
9413;SDS011;4746;35.664;139.738;2022-10-16T09:37:00;4.55;;;4.00;;
9413;SDS011;4746;35.664;139.738;2022-10-16T09:39:48;7.40;;;3.83;;
9413;SDS011;4746;35.664;139.738;2022-10-16T09:42:22;6.28;;;4.43;;
9413;SDS011;4746;35.664;139.738;2022-10-16T09:44:59;5.25;;;4.22;;
9413;SDS011;4746;35.664;139.738;2022-10-16T09:47:27;6.72;;;4.53;;
9413;SDS011;4746;35.664;139.738;2022-10-16T09:50:01;8.27;;;4.50;;
9413;SDS011;4746;35.664;139.738;2022-10-16T09:52:49;7.93;;;4.22;;
9413;SDS011;4746;35.664;139.738;2022-10-16T09:55:17;7.43;;;4.20;;
9413;SDS011;4746;35.664;139.738;2022-10-16T09:57:52;8.80;;;4.50;;
9413;SDS011;4746;35.664;139.738;2022-10-16T10:00:21;7.22;;;3.88;;
9413;SDS011;4746;35.664;139.738;2022-10-16T10:02:51;8.60;;;4.63;;
9413;SDS011;4746;35.664;139.738;2022-10-16T10:05:25;9.20;;;4.65;;
9413;SDS011;4746;35.664;139.738;2022-10-16T10:07:58;9.73;;;4.75;;
9413;SDS011;4746;35.664;139.738;2022-10-16T10:10:41;8.90;;;5.20;;
9413;SDS011;4746;35.664;139.738;2022-10-16T10:13:20;10.23;;;4.47;;
9413;SDS011;4746;35.664;139.738;2022-10-16T10:15:52;6.35;;;4.20;;
9413;SDS011;4746;35.664;139.738;2022-10-16T10:18:21;4.85;;;4.28;;
9413;SDS011;4746;35.664;139.738;2022-10-16T10:20:59;7.72;;;4.10;;
9413;SDS011;4746;35.664;139.738;2022-10-16T10:23:31;8.45;;;4.15;;
9413;SDS011;4746;35.664;139.738;2022-10-16T10:26:15;8.52;;;5.13;;
9413;SDS011;4746;35.664;139.738;2022-10-16T10:34:26;5.90;;;4.25;;
9413;SDS011;4746;35.664;139.738;2022-10-16T10:43:00;7.75;;;4.82;;
9413;SDS011;4746;35.664;139.738;2022-10-16T10:45:44;8.18;;;4.43;;
9413;SDS011;4746;35.664;139.738;2022-10-16T10:48:40;5.15;;;4.35;;
9413;SDS011;4746;35.664;139.738;2022-10-16T10:54:33;6.15;;;4.50;;
9413;SDS011;4746;35.664;139.738;2022-10-16T10:57:25;9.98;;;4.30;;
9413;SDS011;4746;35.664;139.738;2022-10-16T11:03:03;5.93;;;4.20;;
9413;SDS011;4746;35.664;139.738;2022-10-16T11:06:07;6.30;;;4.15;;
9413;SDS011;4746;35.664;139.738;2022-10-16T11:15:35;5.95;;;4.05;;
9413;SDS011;4746;35.664;139.738;2022-10-16T11:18:08;5.30;;;4.15;;
9413;SDS011;4746;35.664;139.738;2022-10-16T11:21:11;4.40;;;3.95;;
9413;SDS011;4746;35.664;139.738;2022-10-16T11:23:56;9.00;;;3.58;;
9413;SDS011;4746;35.664;139.738;2022-10-16T11:26:50;6.63;;;4.40;;
9413;SDS011;4746;35.664;139.738;2022-10-16T11:29:25;8.80;;;4.95;;
9413;SDS011;4746;35.664;139.738;2022-10-16T11:32:04;8.00;;;4.80;;
9413;SDS011;4746;35.664;139.738;2022-10-16T11:41:50;5.75;;;3.65;;
9413;SDS011;4746;35.664;139.738;2022-10-16T11:50:53;5.00;;;4.50;;
9413;SDS011;4746;35.664;139.738;2022-10-16T11:56:41;7.45;;;4.00;;
9413;SDS011;4746;35.664;139.738;2022-10-16T11:59:20;7.70;;;4.53;;
9413;SDS011;4746;35.664;139.738;2022-10-16T12:04:59;7.22;;;4.45;;
9413;SDS011;4746;35.664;139.738;2022-10-16T12:10:42;5.25;;;4.53;;
9413;SDS011;4746;35.664;139.738;2022-10-16T12:18:47;7.72;;;4.60;;
9413;SDS011;4746;35.664;139.738;2022-10-16T12:21:30;6.57;;;4.93;;
9413;SDS011;4746;35.664;139.738;2022-10-16T12:23:58;10.48;;;4.60;;
9413;SDS011;4746;35.664;139.738;2022-10-16T12:26:33;5.32;;;4.25;;
9413;SDS011;4746;35.664;139.738;2022-10-16T12:29:14;6.38;;;5.15;;
9413;SDS011;4746;35.664;139.738;2022-10-16T12:32:22;9.75;;;4.85;;
9413;SDS011;4746;35.664;139.738;2022-10-16T12:35:01;4.97;;;4.13;;
9413;SDS011;4746;35.664;139.738;2022-10-16T12:37:42;8.02;;;5.13;;
9413;SDS011;4746;35.664;139.738;2022-10-16T12:40:12;5.28;;;4.43;;
9413;SDS011;4746;35.664;139.738;2022-10-16T12:42:54;7.30;;;4.30;;
9413;SDS011;4746;35.664;139.738;2022-10-16T12:45:31;5.35;;;4.25;;
9413;SDS011;4746;35.664;139.738;2022-10-16T12:48:01;6.55;;;4.45;;
9413;SDS011;4746;35.664;139.738;2022-10-16T12:50:45;8.05;;;4.88;;
9413;SDS011;4746;35.664;139.738;2022-10-16T12:53:19;9.13;;;4.82;;
9413;SDS011;4746;35.664;139.738;2022-10-16T12:56:13;6.78;;;5.03;;
9413;SDS011;4746;35.664;139.738;2022-10-16T12:59:01;5.70;;;4.72;;
9413;SDS011;4746;35.664;139.738;2022-10-16T13:04:48;8.45;;;4.97;;
9413;SDS011;4746;35.664;139.738;2022-10-16T13:19:48;8.43;;;6.60;;
9413;SDS011;4746;35.664;139.738;2022-10-16T13:28:07;9.20;;;8.27;;
9413;SDS011;4746;35.664;139.738;2022-10-16T13:30:41;11.18;;;7.45;;
9413;SDS011;4746;35.664;139.738;2022-10-16T13:33:35;10.05;;;7.18;;
9413;SDS011;4746;35.664;139.738;2022-10-16T13:36:17;10.38;;;7.35;;
9413;SDS011;4746;35.664;139.738;2022-10-16T13:39:27;11.25;;;7.15;;
9413;SDS011;4746;35.664;139.738;2022-10-16T13:42:03;8.18;;;6.32;;
9413;SDS011;4746;35.664;139.738;2022-10-16T13:44:48;8.65;;;6.20;;
9413;SDS011;4746;35.664;139.738;2022-10-16T13:47:21;6.75;;;4.95;;
9413;SDS011;4746;35.664;139.738;2022-10-16T13:52:46;7.55;;;5.85;;
9413;SDS011;4746;35.664;139.738;2022-10-16T13:55:15;6.80;;;5.30;;
9413;SDS011;4746;35.664;139.738;2022-10-16T13:57:44;12.88;;;5.95;;
9413;SDS011;4746;35.664;139.738;2022-10-16T14:00:23;8.20;;;5.55;;
9413;SDS011;4746;35.664;139.738;2022-10-16T14:03:04;6.75;;;4.75;;
9413;SDS011;4746;35.664;139.738;2022-10-16T14:05:48;6.35;;;5.57;;
9413;SDS011;4746;35.664;139.738;2022-10-16T14:08:21;6.25;;;5.10;;
9413;SDS011;4746;35.664;139.738;2022-10-16T14:10:53;5.95;;;4.20;;
9413;SDS011;4746;35.664;139.738;2022-10-16T14:13:27;6.70;;;5.57;;
9413;SDS011;4746;35.664;139.738;2022-10-16T14:16:07;8.63;;;5.35;;
9413;SDS011;4746;35.664;139.738;2022-10-16T14:18:44;6.25;;;5.00;;
9413;SDS011;4746;35.664;139.738;2022-10-16T14:21:22;7.03;;;4.78;;
9413;SDS011;4746;35.664;139.738;2022-10-16T14:23:50;5.15;;;4.65;;
9413;SDS011;4746;35.664;139.738;2022-10-16T14:26:19;5.70;;;5.05;;
9413;SDS011;4746;35.664;139.738;2022-10-16T14:29:01;9.10;;;5.22;;
9413;SDS011;4746;35.664;139.738;2022-10-16T14:34:38;7.28;;;4.82;;
9413;SDS011;4746;35.664;139.738;2022-10-16T14:39:56;6.72;;;4.90;;
9413;SDS011;4746;35.664;139.738;2022-10-16T14:42:24;7.32;;;4.45;;
9413;SDS011;4746;35.664;139.738;2022-10-16T14:44:53;6.45;;;5.18;;
9413;SDS011;4746;35.664;139.738;2022-10-16T14:47:22;8.27;;;4.97;;
9413;SDS011;4746;35.664;139.738;2022-10-16T14:49:53;6.85;;;5.07;;
9413;SDS011;4746;35.664;139.738;2022-10-16T14:52:23;5.47;;;3.90;;
9413;SDS011;4746;35.664;139.738;2022-10-16T14:54:51;6.70;;;4.20;;
9413;SDS011;4746;35.664;139.738;2022-10-16T14:57:22;9.13;;;5.30;;
9413;SDS011;4746;35.664;139.738;2022-10-16T14:59:56;5.07;;;4.05;;
9413;SDS011;4746;35.664;139.738;2022-10-16T15:02:33;6.15;;;4.75;;
9413;SDS011;4746;35.664;139.738;2022-10-16T15:05:12;7.85;;;5.03;;
9413;SDS011;4746;35.664;139.738;2022-10-16T15:07:49;4.82;;;4.30;;
9413;SDS011;4746;35.664;139.738;2022-10-16T15:10:18;6.55;;;4.13;;
9413;SDS011;4746;35.664;139.738;2022-10-16T15:12:49;8.43;;;4.68;;
9413;SDS011;4746;35.664;139.738;2022-10-16T15:18:07;6.93;;;4.70;;
9413;SDS011;4746;35.664;139.738;2022-10-16T15:20:36;7.55;;;4.80;;
9413;SDS011;4746;35.664;139.738;2022-10-16T15:23:06;10.50;;;5.07;;
9413;SDS011;4746;35.664;139.738;2022-10-16T15:25:54;9.65;;;5.53;;
9413;SDS011;4746;35.664;139.738;2022-10-16T15:28:23;8.95;;;4.78;;
9413;SDS011;4746;35.664;139.738;2022-10-16T15:30:53;12.15;;;4.80;;
9413;SDS011;4746;35.664;139.738;2022-10-16T15:33:24;7.72;;;5.30;;
9413;SDS011;4746;35.664;139.738;2022-10-16T15:35:58;6.68;;;5.95;;
9413;SDS011;4746;35.664;139.738;2022-10-16T15:38:26;8.40;;;6.20;;
9413;SDS011;4746;35.664;139.738;2022-10-16T15:40:55;9.48;;;5.60;;
9413;SDS011;4746;35.664;139.738;2022-10-16T15:43:23;7.05;;;6.38;;
9413;SDS011;4746;35.664;139.738;2022-10-16T15:46:00;9.88;;;6.13;;
9413;SDS011;4746;35.664;139.738;2022-10-16T15:48:32;7.38;;;5.80;;
9413;SDS011;4746;35.664;139.738;2022-10-16T15:51:00;6.45;;;5.85;;
9413;SDS011;4746;35.664;139.738;2022-10-16T15:53:33;9.35;;;6.47;;
9413;SDS011;4746;35.664;139.738;2022-10-16T15:56:05;9.13;;;6.57;;
9413;SDS011;4746;35.664;139.738;2022-10-16T15:58:34;9.90;;;6.47;;
9413;SDS011;4746;35.664;139.738;2022-10-16T16:01:02;8.18;;;6.78;;
9413;SDS011;4746;35.664;139.738;2022-10-16T16:03:31;8.32;;;5.70;;
9413;SDS011;4746;35.664;139.738;2022-10-16T16:06:03;6.47;;;5.30;;
9413;SDS011;4746;35.664;139.738;2022-10-16T16:08:33;7.20;;;5.82;;
9413;SDS011;4746;35.664;139.738;2022-10-16T16:11:02;6.32;;;5.20;;
9413;SDS011;4746;35.664;139.738;2022-10-16T16:13:33;6.68;;;5.28;;
9413;SDS011;4746;35.664;139.738;2022-10-16T16:16:12;7.60;;;5.05;;
9413;SDS011;4746;35.664;139.738;2022-10-16T16:18:42;6.95;;;5.10;;
9413;SDS011;4746;35.664;139.738;2022-10-16T16:21:11;10.38;;;5.35;;
9413;SDS011;4746;35.664;139.738;2022-10-16T16:23:39;6.40;;;5.18;;
9413;SDS011;4746;35.664;139.738;2022-10-16T16:26:08;8.13;;;5.05;;
9413;SDS011;4746;35.664;139.738;2022-10-16T16:29:05;7.63;;;5.03;;
9413;SDS011;4746;35.664;139.738;2022-10-16T16:31:33;8.70;;;5.53;;
9413;SDS011;4746;35.664;139.738;2022-10-16T16:34:00;7.13;;;4.93;;
9413;SDS011;4746;35.664;139.738;2022-10-16T16:36:28;5.80;;;4.57;;
9413;SDS011;4746;35.664;139.738;2022-10-16T16:38:58;8.88;;;5.22;;
9413;SDS011;4746;35.664;139.738;2022-10-16T16:41:27;6.85;;;5.00;;
9413;SDS011;4746;35.664;139.738;2022-10-16T16:44:01;8.82;;;5.70;;
9413;SDS011;4746;35.664;139.738;2022-10-16T16:46:33;8.32;;;5.35;;
9413;SDS011;4746;35.664;139.738;2022-10-16T16:49:01;7.57;;;5.22;;
9413;SDS011;4746;35.664;139.738;2022-10-16T16:51:29;6.90;;;5.30;;
9413;SDS011;4746;35.664;139.738;2022-10-16T16:53:57;8.65;;;5.00;;
9413;SDS011;4746;35.664;139.738;2022-10-16T16:56:25;8.90;;;4.78;;
9413;SDS011;4746;35.664;139.738;2022-10-16T16:58:54;8.57;;;4.88;;
9413;SDS011;4746;35.664;139.738;2022-10-16T17:01:23;8.80;;;5.78;;
9413;SDS011;4746;35.664;139.738;2022-10-16T17:03:54;8.73;;;5.47;;
9413;SDS011;4746;35.664;139.738;2022-10-16T17:06:25;8.10;;;5.00;;
9413;SDS011;4746;35.664;139.738;2022-10-16T17:08:57;8.77;;;5.10;;
9413;SDS011;4746;35.664;139.738;2022-10-16T17:11:28;9.75;;;4.85;;
9413;SDS011;4746;35.664;139.738;2022-10-16T17:13:56;7.93;;;5.05;;
9413;SDS011;4746;35.664;139.738;2022-10-16T17:16:33;6.07;;;4.20;;
9413;SDS011;4746;35.664;139.738;2022-10-16T17:19:03;6.47;;;4.63;;